createdAt,value
2018-11-14T00:15:33.288Z,8.70
2018-11-14T00:18:01.535Z,8.70
2018-11-14T00:20:29.790Z,8.60
2018-11-14T00:22:58.054Z,8.60
2018-11-14T00:25:26.320Z,8.60
2018-11-14T00:27:54.625Z,8.60
2018-11-14T00:30:23.999Z,8.60
2018-11-14T00:32:52.265Z,8.60
2018-11-14T00:35:20.552Z,8.60
2018-11-14T00:37:49.226Z,8.70
2018-11-14T00:40:18.333Z,8.70
2018-11-14T00:42:47.198Z,8.70
2018-11-14T00:45:17.420Z,8.70
2018-11-14T00:47:46.584Z,8.70
2018-11-14T00:50:15.658Z,8.80
2018-11-14T00:52:44.521Z,8.80
2018-11-14T00:55:17.905Z,8.80
2018-11-14T00:57:47.206Z,8.80
2018-11-14T01:00:17.613Z,8.80
2018-11-14T01:02:46.213Z,8.90
2018-11-14T01:05:15.123Z,8.90
2018-11-14T01:07:43.970Z,8.80
2018-11-14T01:10:14.027Z,8.90
2018-11-14T01:12:42.705Z,8.90
2018-11-14T01:15:14.093Z,8.90
2018-11-14T01:17:42.741Z,9.00
2018-11-14T01:20:13.159Z,9.00
2018-11-14T01:22:42.094Z,9.00
2018-11-14T01:25:12.066Z,9.10
2018-11-14T01:27:40.451Z,9.20
2018-11-14T01:30:11.203Z,9.20
2018-11-14T01:32:39.458Z,9.30
2018-11-14T01:35:08.126Z,9.30
2018-11-14T01:37:36.743Z,9.30
2018-11-14T01:40:10.868Z,9.30
2018-11-14T01:42:39.122Z,9.40
2018-11-14T01:45:13.076Z,9.40
2018-11-14T01:47:41.321Z,9.40
2018-11-14T01:50:10.173Z,9.40
2018-11-14T01:52:38.853Z,9.40
2018-11-14T01:55:08.657Z,9.50
2018-11-14T01:57:36.907Z,9.50
2018-11-14T02:00:12.363Z,9.40
2018-11-14T02:02:41.547Z,9.40
2018-11-14T02:05:10.591Z,9.40
2018-11-14T02:07:38.871Z,9.30
2018-11-14T02:10:08.645Z,9.20
2018-11-14T02:12:37.580Z,9.10
2018-11-14T02:15:07.823Z,9.10
2018-11-14T02:17:36.473Z,9.10
2018-11-14T02:20:05.852Z,9.10
2018-11-14T02:22:34.335Z,9.10
2018-11-14T02:25:02.909Z,9.10
2018-11-14T02:27:31.668Z,9.10
2018-11-14T02:29:59.905Z,9.10
2018-11-14T02:32:28.159Z,9.10
2018-11-14T02:34:56.400Z,9.10
2018-11-14T02:37:24.701Z,9.10
2018-11-14T02:39:54.150Z,9.00
2018-11-14T02:42:22.378Z,9.00
2018-11-14T02:44:50.624Z,8.90
2018-11-14T02:47:18.864Z,8.90
2018-11-14T02:49:47.139Z,8.80
2018-11-14T02:52:15.653Z,8.70
2018-11-14T02:54:43.887Z,8.70
2018-11-14T02:57:12.146Z,8.70
2018-11-14T02:59:40.380Z,8.60
2018-11-14T03:02:08.800Z,8.60
2018-11-14T03:04:37.076Z,8.60
2018-11-14T03:07:05.355Z,8.50
2018-11-14T03:09:33.673Z,8.50
2018-11-14T03:12:01.919Z,8.50
2018-11-14T03:14:30.148Z,8.40
2018-11-14T03:17:05.333Z,8.40
2018-11-14T03:19:33.573Z,8.40
2018-11-14T03:22:02.171Z,8.30
2018-11-14T03:24:30.428Z,8.30
2018-11-14T03:26:58.658Z,8.30
2018-11-14T03:29:26.885Z,8.20
2018-11-14T03:31:55.148Z,8.20
2018-11-14T03:34:23.375Z,8.20
2018-11-14T03:36:51.611Z,8.20
2018-11-14T03:39:19.873Z,8.10
2018-11-14T03:41:48.122Z,8.10
2018-11-14T03:44:16.386Z,8.10
2018-11-14T03:46:45.190Z,8.10
2018-11-14T03:49:13.428Z,8.10
2018-11-14T03:51:41.668Z,8.00
2018-11-14T03:54:12.271Z,8.00
2018-11-14T03:56:40.513Z,7.90
2018-11-14T03:59:08.728Z,8.00
2018-11-14T04:01:37.034Z,7.90
2018-11-14T04:04:05.715Z,7.90
2018-11-14T04:06:33.989Z,7.90
2018-11-14T04:09:02.589Z,7.90
2018-11-14T04:11:30.822Z,7.90
2018-11-14T04:13:59.061Z,7.90
2018-11-14T04:16:27.307Z,7.90
2018-11-14T04:18:55.541Z,7.80
2018-11-14T04:21:23.804Z,7.80
2018-11-14T04:23:52.092Z,7.70
2018-11-14T04:26:20.335Z,7.70
2018-11-14T04:28:48.581Z,7.70
2018-11-14T04:31:17.317Z,7.70
2018-11-14T04:33:45.614Z,7.60
2018-11-14T04:36:14.614Z,7.60
2018-11-14T04:38:42.880Z,7.60
2018-11-14T04:41:11.138Z,7.50
2018-11-14T04:43:39.382Z,7.50
2018-11-14T04:46:07.634Z,7.50
2018-11-14T04:48:35.885Z,7.50
2018-11-14T04:51:04.416Z,7.40
2018-11-14T04:53:32.657Z,7.40
2018-11-14T04:56:00.915Z,7.40
2018-11-14T04:58:29.140Z,7.40
2018-11-14T05:00:57.370Z,7.40
2018-11-14T05:03:25.615Z,7.30
2018-11-14T05:05:53.869Z,7.30
2018-11-14T05:08:22.117Z,7.30
2018-11-14T05:10:50.353Z,7.30
2018-11-14T05:13:18.643Z,7.20
2018-11-14T05:15:46.908Z,7.20
2018-11-14T05:18:15.148Z,7.20
2018-11-14T05:20:43.398Z,7.20
2018-11-14T05:23:11.643Z,7.20
2018-11-14T05:25:39.889Z,7.10
2018-11-14T05:28:08.118Z,7.20
2018-11-14T05:30:36.378Z,7.10
2018-11-14T05:33:04.773Z,7.20
2018-11-14T05:35:33.322Z,7.10
2018-11-14T05:38:01.560Z,7.10
2018-11-14T05:40:29.803Z,7.10
2018-11-14T05:42:58.053Z,7.10
2018-11-14T05:45:27.164Z,7.10
2018-11-14T05:47:55.553Z,7.10
2018-11-14T05:50:24.388Z,7.10
2018-11-14T05:52:52.640Z,7.00
2018-11-14T05:55:21.112Z,7.00
2018-11-14T05:57:49.353Z,7.00
2018-11-14T06:00:27.185Z,6.90
2018-11-14T06:02:55.658Z,6.90
2018-11-14T06:05:23.894Z,6.90
2018-11-14T06:07:52.326Z,6.90
2018-11-14T06:10:20.559Z,6.90
2018-11-14T06:12:48.798Z,6.90
2018-11-14T06:15:18.264Z,6.90
2018-11-14T06:17:47.770Z,6.90
2018-11-14T06:20:19.601Z,6.90
2018-11-14T06:22:49.361Z,6.80
2018-11-14T06:25:31.799Z,6.80
2018-11-14T06:28:01.722Z,6.80
2018-11-14T06:30:30.153Z,6.80
2018-11-14T06:32:59.275Z,6.80
2018-11-14T06:35:30.763Z,6.80
2018-11-14T06:38:00.335Z,6.70
2018-11-14T06:40:31.235Z,6.70
2018-11-14T06:43:00.074Z,6.70
2018-11-14T06:45:31.833Z,6.70
2018-11-14T06:48:02.895Z,6.70
2018-11-14T06:50:33.064Z,6.70
2018-11-14T06:53:04.603Z,6.70
2018-11-14T06:55:34.302Z,6.70
2018-11-14T06:58:03.454Z,6.70
2018-11-14T07:00:33.681Z,6.70
2018-11-14T07:03:03.788Z,6.70
2018-11-14T07:05:34.546Z,6.70
2018-11-14T07:08:05.276Z,6.70
2018-11-14T07:10:37.307Z,6.70
2018-11-14T07:13:08.964Z,6.70
2018-11-14T07:15:39.534Z,6.70
2018-11-14T07:18:14.241Z,6.70
2018-11-14T07:20:45.135Z,6.70
2018-11-14T07:23:14.017Z,6.70
2018-11-14T07:25:42.304Z,6.80
2018-11-14T07:28:12.155Z,6.80
2018-11-14T07:30:42.819Z,6.80
2018-11-14T07:33:12.987Z,6.80
2018-11-14T07:35:43.769Z,6.80
2018-11-14T07:38:32.337Z,6.80
2018-11-14T07:41:03.750Z,6.80
2018-11-14T07:43:33.773Z,6.90
2018-11-14T07:46:05.084Z,6.90
2018-11-14T07:48:35.212Z,6.90
2018-11-14T07:51:05.998Z,6.90
2018-11-14T07:53:34.992Z,6.90
2018-11-14T07:56:03.277Z,7.00
2018-11-14T07:58:32.059Z,7.00
2018-11-14T08:01:00.483Z,7.00
2018-11-14T08:03:28.763Z,7.10
2018-11-14T08:05:57.546Z,7.10
2018-11-14T08:08:25.897Z,7.20
2018-11-14T08:10:54.299Z,7.20
2018-11-14T08:13:25.406Z,7.30
2018-11-14T08:15:55.730Z,7.40
2018-11-14T08:18:24.304Z,7.40
2018-11-14T08:20:52.765Z,7.50
2018-11-14T08:23:21.120Z,7.50
2018-11-14T08:25:49.565Z,7.60
2018-11-14T08:28:17.882Z,7.70
2018-11-14T08:30:46.714Z,7.70
2018-11-14T08:33:15.092Z,7.80
2018-11-14T08:35:43.483Z,7.90
2018-11-14T08:38:11.734Z,7.90
2018-11-14T08:40:39.992Z,8.00
2018-11-14T08:43:09.312Z,8.00
2018-11-14T08:45:37.595Z,8.10
2018-11-14T08:48:06.405Z,8.10
2018-11-14T08:50:34.647Z,8.20
2018-11-14T08:53:03.279Z,8.20
2018-11-14T08:55:31.546Z,8.30
2018-11-14T08:58:00.166Z,8.40
2018-11-14T09:00:28.891Z,8.40
2018-11-14T09:02:57.167Z,8.50
2018-11-14T09:05:25.437Z,8.50
2018-11-14T09:07:53.827Z,8.60
2018-11-14T09:10:23.219Z,8.60
2018-11-14T09:12:51.486Z,8.70
2018-11-14T09:15:21.008Z,8.80
2018-11-14T09:17:49.489Z,8.80
2018-11-14T09:20:19.236Z,8.80
2018-11-14T09:22:47.587Z,8.90
2018-11-14T09:25:29.673Z,8.90
2018-11-14T09:27:58.565Z,9.00
2018-11-14T09:30:27.278Z,9.00
2018-11-14T09:32:55.787Z,9.10
2018-11-14T09:35:25.019Z,9.10
2018-11-14T09:37:54.224Z,9.20
2018-11-14T09:40:23.938Z,9.20
2018-11-14T09:42:52.203Z,9.30
2018-11-14T09:45:22.644Z,9.30
2018-11-14T09:47:51.126Z,9.30
2018-11-14T09:50:20.821Z,9.40
2018-11-14T09:52:51.858Z,9.50
2018-11-14T09:55:20.103Z,9.50
2018-11-14T09:57:48.408Z,9.50
2018-11-14T10:00:22.933Z,9.60
2018-11-14T10:02:54.900Z,9.70
2018-11-14T10:05:24.205Z,9.70
2018-11-14T10:07:52.488Z,9.80
2018-11-14T10:10:21.585Z,9.80
2018-11-14T10:12:49.857Z,9.90
2018-11-14T10:15:19.759Z,10.00
2018-11-14T10:17:48.456Z,10.00
2018-11-14T10:20:17.963Z,10.10
2018-11-14T10:22:46.634Z,10.10
2018-11-14T10:25:15.730Z,10.20
2018-11-14T10:27:44.950Z,10.20
2018-11-14T10:30:22.873Z,10.30
2018-11-14T10:32:51.607Z,10.30
2018-11-14T10:35:19.908Z,10.40
2018-11-14T10:37:48.243Z,10.40
2018-11-14T10:40:19.198Z,10.40
2018-11-14T10:42:47.530Z,10.50
2018-11-14T10:45:16.907Z,10.50
2018-11-14T10:47:45.566Z,10.60
2018-11-14T10:50:16.210Z,10.60
2018-11-14T10:52:44.475Z,10.60
2018-11-14T10:55:13.841Z,10.70
2018-11-14T10:57:42.112Z,10.70
2018-11-14T11:00:19.098Z,10.80
2018-11-14T11:02:52.658Z,10.80
2018-11-14T11:05:26.302Z,10.80
2018-11-14T11:07:59.896Z,10.90
2018-11-14T11:10:33.474Z,10.90
2018-11-14T11:13:07.146Z,10.90
2018-11-14T11:15:40.594Z,10.90
2018-11-14T11:18:15.898Z,10.90
2018-11-14T11:20:44.175Z,10.90
2018-11-14T11:23:12.428Z,11.00
2018-11-14T11:25:41.323Z,11.00
2018-11-14T11:28:09.587Z,11.00
2018-11-14T11:30:38.076Z,11.10
2018-11-14T11:33:07.141Z,11.10
2018-11-14T11:35:35.509Z,11.20
2018-11-14T11:38:04.099Z,11.20
2018-11-14T11:40:32.846Z,11.20
2018-11-14T11:43:01.808Z,11.30
2018-11-14T11:45:30.073Z,11.30
2018-11-14T11:47:58.356Z,11.30
2018-11-14T11:50:27.014Z,11.40
2018-11-14T11:52:55.578Z,11.40
2018-11-14T11:55:23.841Z,11.40
2018-11-14T11:57:52.117Z,11.50
2018-11-14T12:00:20.503Z,11.50
2018-11-14T12:02:48.671Z,11.60
2018-11-14T12:05:16.957Z,11.60
2018-11-14T12:07:45.229Z,11.70
2018-11-14T12:10:14.417Z,11.70
2018-11-14T12:12:43.700Z,11.80
2018-11-14T12:15:13.396Z,11.80
2018-11-14T12:17:42.538Z,11.80
2018-11-14T12:20:12.184Z,11.80
2018-11-14T12:22:41.074Z,11.90
2018-11-14T12:25:11.274Z,11.80
2018-11-14T12:27:39.566Z,11.90
2018-11-14T12:30:10.513Z,11.90
2018-11-14T12:32:38.790Z,11.90
2018-11-14T12:35:08.456Z,11.90
2018-11-14T12:37:36.682Z,12.00
2018-11-14T12:40:05.576Z,12.00
2018-11-14T12:42:33.826Z,12.00
2018-11-14T12:45:02.451Z,12.10
2018-11-14T12:47:30.926Z,12.10
2018-11-14T12:49:59.203Z,12.10
2018-11-14T12:52:27.626Z,12.20
2018-11-14T12:54:55.888Z,12.20
2018-11-14T12:57:24.359Z,12.20
2018-11-14T12:59:52.647Z,12.20
2018-11-14T13:02:20.904Z,12.30
2018-11-14T13:04:49.514Z,12.30
2018-11-14T13:07:17.781Z,12.30
2018-11-14T13:09:46.033Z,12.30
2018-11-14T13:12:14.285Z,12.30
2018-11-14T13:14:42.531Z,12.30
2018-11-14T13:17:10.792Z,12.20
2018-11-14T13:19:39.078Z,12.20
2018-11-14T13:22:07.392Z,12.20
2018-11-14T13:24:35.671Z,12.20
2018-11-14T13:27:05.587Z,12.20
2018-11-14T13:29:33.852Z,12.20
2018-11-14T13:32:02.121Z,12.20
2018-11-14T13:34:30.509Z,12.20
2018-11-14T13:36:58.794Z,12.20
2018-11-14T13:39:27.085Z,12.20
2018-11-14T13:41:55.378Z,12.20
2018-11-14T13:44:23.682Z,12.20
2018-11-14T13:46:51.955Z,12.20
2018-11-14T13:49:20.623Z,12.20
2018-11-14T13:51:48.583Z,12.20
2018-11-14T13:54:16.956Z,12.20
2018-11-14T13:56:45.247Z,12.20
2018-11-14T13:59:13.497Z,12.20
2018-11-14T14:01:41.764Z,12.20
2018-11-14T14:04:10.022Z,12.10
2018-11-14T14:06:38.267Z,12.10
2018-11-14T14:09:13.339Z,12.10
2018-11-14T14:11:41.712Z,12.00
2018-11-14T14:14:11.534Z,12.10
2018-11-14T14:16:40.420Z,12.00
2018-11-14T14:19:08.875Z,12.00
2018-11-14T14:21:37.369Z,12.00
2018-11-14T14:24:06.489Z,11.90
2018-11-14T14:26:35.227Z,11.90
2018-11-14T14:29:03.545Z,11.90
2018-11-14T14:31:31.856Z,11.80
2018-11-14T14:34:00.136Z,11.80
2018-11-14T14:36:28.421Z,11.70
2018-11-14T14:38:56.706Z,11.70
2018-11-14T14:41:24.995Z,11.70
2018-11-14T14:43:53.250Z,11.70
2018-11-14T14:46:21.617Z,11.70
2018-11-14T14:48:49.933Z,11.60
2018-11-14T14:51:18.161Z,11.60
2018-11-14T14:53:47.363Z,11.60
2018-11-14T14:56:16.313Z,11.50
2018-11-14T14:58:44.857Z,11.50
2018-11-14T15:01:13.159Z,11.40
2018-11-14T15:03:41.522Z,11.40
2018-11-14T15:06:09.746Z,11.40
2018-11-14T15:08:37.998Z,11.30
2018-11-14T15:11:06.277Z,11.30
2018-11-14T15:13:34.559Z,11.20
2018-11-14T15:16:02.968Z,11.20
2018-11-14T15:18:31.386Z,11.20
2018-11-14T15:20:59.647Z,11.10
2018-11-14T15:23:27.977Z,11.00
2018-11-14T15:26:02.948Z,11.00
2018-11-14T15:28:31.253Z,10.90
2018-11-14T15:30:59.507Z,10.80
2018-11-14T15:33:27.838Z,10.80
2018-11-14T15:35:56.185Z,10.70
2018-11-14T15:38:24.385Z,10.70
2018-11-14T15:40:52.681Z,10.60
2018-11-14T15:43:21.217Z,10.60
2018-11-14T15:45:49.865Z,10.50
2018-11-14T15:48:18.144Z,10.50
2018-11-14T15:50:46.552Z,10.40
2018-11-14T15:53:15.158Z,10.30
2018-11-14T15:55:45.152Z,10.30
2018-11-14T15:58:13.445Z,10.20
2018-11-14T16:00:41.772Z,10.10
2018-11-14T16:03:10.519Z,10.10
2018-11-14T16:05:38.947Z,10.00
2018-11-14T16:08:07.156Z,10.00
2018-11-14T16:10:35.955Z,10.00
2018-11-14T16:13:04.192Z,9.90
2018-11-14T16:15:34.267Z,10.10
2018-11-14T16:20:37.477Z,10.20
2018-11-14T16:23:05.822Z,10.00
2018-11-14T16:25:34.087Z,9.90
2018-11-14T16:28:02.912Z,9.80
2018-11-14T16:30:33.213Z,9.70
2018-11-14T16:33:02.897Z,9.70
2018-11-14T16:35:31.164Z,9.70
2018-11-14T16:37:59.498Z,9.60
2018-11-14T16:40:31.862Z,9.60
2018-11-14T16:43:01.340Z,9.50
2018-11-14T16:45:29.635Z,9.50
2018-11-14T16:47:58.109Z,9.40
2018-11-14T16:50:26.404Z,9.40
2018-11-14T16:52:54.717Z,9.40
2018-11-14T16:55:23.406Z,9.30
2018-11-14T16:57:52.678Z,9.30
2018-11-14T17:00:22.338Z,9.30
2018-11-14T17:02:50.623Z,9.20
2018-11-14T17:05:19.526Z,9.20
2018-11-14T17:07:47.924Z,9.10
2018-11-14T17:10:17.596Z,9.10
2018-11-14T17:12:46.791Z,9.00
2018-11-14T17:15:16.583Z,9.00
2018-11-14T17:17:44.874Z,9.00
2018-11-14T17:20:14.425Z,8.90
2018-11-14T17:22:43.286Z,8.90
2018-11-14T17:25:12.572Z,8.90
2018-11-14T17:27:41.484Z,8.80
2018-11-14T17:30:12.206Z,8.80
2018-11-14T17:32:40.673Z,8.80
2018-11-14T17:35:10.172Z,8.80
2018-11-14T17:37:39.321Z,8.70
2018-11-14T17:40:16.176Z,8.70
2018-11-14T17:42:45.365Z,8.70
2018-11-14T17:45:17.025Z,8.60
2018-11-14T17:47:45.796Z,8.60
2018-11-14T17:50:19.531Z,8.50
2018-11-14T17:52:48.617Z,8.50
2018-11-14T17:55:17.484Z,8.40
2018-11-14T17:57:45.757Z,8.50
2018-11-14T18:00:16.074Z,8.40
2018-11-14T18:02:44.991Z,8.40
2018-11-14T18:05:14.726Z,8.40
2018-11-14T18:07:43.780Z,8.40
2018-11-14T18:10:13.932Z,8.40
2018-11-14T18:12:43.434Z,8.30
2018-11-14T18:15:12.328Z,8.30
2018-11-14T18:17:41.024Z,8.30
2018-11-14T18:20:13.188Z,8.30
2018-11-14T18:22:42.065Z,8.20
2018-11-14T18:25:11.073Z,8.20
2018-11-14T18:27:39.453Z,8.20
2018-11-14T18:30:11.198Z,8.20
2018-11-14T18:32:39.797Z,8.20
2018-11-14T18:35:10.271Z,8.10
2018-11-14T18:37:38.564Z,8.10
2018-11-14T18:40:09.259Z,8.10
2018-11-14T18:42:37.910Z,8.00
2018-11-14T18:45:15.058Z,8.00
2018-11-14T18:47:43.897Z,8.00
2018-11-14T18:50:13.399Z,7.90
2018-11-14T18:52:42.504Z,7.90
2018-11-14T18:55:15.020Z,7.90
2018-11-14T18:57:44.238Z,7.80
2018-11-14T19:00:15.636Z,7.80
2018-11-14T19:02:44.513Z,7.80
2018-11-14T19:05:13.293Z,7.70
2018-11-14T19:07:41.759Z,7.70
2018-11-14T19:10:13.231Z,7.70
2018-11-14T19:12:42.041Z,7.70
2018-11-14T19:15:44.609Z,7.60
2018-11-14T19:18:13.040Z,7.60
2018-11-14T19:20:41.393Z,7.60
2018-11-14T19:23:09.721Z,7.50
2018-11-14T19:25:38.461Z,7.50
2018-11-14T19:28:06.767Z,7.50
2018-11-14T19:30:36.784Z,7.50
2018-11-14T19:33:05.357Z,7.40
2018-11-14T19:35:33.939Z,7.40
2018-11-14T19:38:02.716Z,7.40
2018-11-14T19:40:33.506Z,7.40
2018-11-14T19:43:02.955Z,7.30
2018-11-14T19:45:32.924Z,7.30
2018-11-14T19:48:01.198Z,7.30
2018-11-14T19:50:29.684Z,7.20
2018-11-14T19:52:57.935Z,7.20
2018-11-14T19:55:27.044Z,7.20
2018-11-14T19:57:56.502Z,7.10
2018-11-14T20:00:26.383Z,7.10
2018-11-14T20:02:54.691Z,7.10
2018-11-14T20:05:23.280Z,7.10
2018-11-14T20:07:51.554Z,7.10
2018-11-14T20:10:22.041Z,7.10
2018-11-14T20:12:50.690Z,7.10
2018-11-14T20:15:22.287Z,7.10
2018-11-14T20:17:50.907Z,7.10
2018-11-14T20:20:21.540Z,7.10
2018-11-14T20:22:49.804Z,7.10
2018-11-14T20:25:18.071Z,7.10
2018-11-14T20:27:46.771Z,7.00
2018-11-14T20:30:21.521Z,7.00
2018-11-14T20:32:50.312Z,7.00
2018-11-14T20:35:19.785Z,7.00
2018-11-14T20:37:48.074Z,7.00
2018-11-14T20:40:17.788Z,7.00
2018-11-14T20:42:46.671Z,7.00
2018-11-14T20:45:16.774Z,7.00
2018-11-14T20:47:45.246Z,7.00
2018-11-14T20:50:15.985Z,7.00
2018-11-14T20:52:45.616Z,6.90
2018-11-14T20:55:14.589Z,6.90
2018-11-14T20:57:44.070Z,6.90
2018-11-14T21:00:17.216Z,6.80
2018-11-14T21:02:45.502Z,7.20
2018-11-14T21:05:13.784Z,7.00
2018-11-14T21:07:43.030Z,6.90
2018-11-14T21:10:13.353Z,6.90
2018-11-14T21:12:41.985Z,6.80
2018-11-14T21:15:12.654Z,6.70
2018-11-14T21:17:41.169Z,6.70
2018-11-14T21:20:10.027Z,6.70
2018-11-14T21:22:38.527Z,6.60
2018-11-14T21:25:08.464Z,6.60
2018-11-14T21:27:36.760Z,6.60
2018-11-14T21:30:07.573Z,6.60
2018-11-14T21:32:35.846Z,6.50
2018-11-14T21:35:04.128Z,6.50
2018-11-14T21:37:32.372Z,6.50
2018-11-14T21:40:00.654Z,6.50
2018-11-14T21:42:29.195Z,6.50
2018-11-14T21:44:57.483Z,6.40
2018-11-14T21:47:31.189Z,6.40
2018-11-14T21:49:59.455Z,6.40
2018-11-14T21:52:27.713Z,6.40
2018-11-14T21:54:57.043Z,6.30
2018-11-14T21:57:25.309Z,6.30
2018-11-14T21:59:53.601Z,6.20
2018-11-14T22:02:21.869Z,6.20
2018-11-14T22:04:50.183Z,6.10
2018-11-14T22:07:18.454Z,6.10
2018-11-14T22:09:46.967Z,6.10
2018-11-14T22:12:15.256Z,6.00
2018-11-14T22:14:43.572Z,6.00
2018-11-14T22:17:11.819Z,6.00
2018-11-14T22:19:40.114Z,5.90
2018-11-14T22:22:08.373Z,5.90
2018-11-14T22:24:36.698Z,5.80
2018-11-14T22:27:14.366Z,5.80
2018-11-14T22:29:42.619Z,5.80
2018-11-14T22:32:10.912Z,5.80
2018-11-14T22:34:39.213Z,5.80
2018-11-14T22:37:07.510Z,5.80
2018-11-14T22:39:36.079Z,5.80
2018-11-14T22:42:04.371Z,5.80
2018-11-14T22:44:32.626Z,5.80
2018-11-14T22:47:00.888Z,5.70
2018-11-14T22:49:29.184Z,5.70
2018-11-14T22:51:57.462Z,5.70
2018-11-14T22:54:25.745Z,5.70
2018-11-14T22:56:53.974Z,5.70
2018-11-14T22:59:22.222Z,5.70
2018-11-14T23:01:50.472Z,5.70
2018-11-14T23:04:18.858Z,5.70
2018-11-14T23:06:47.166Z,5.70
2018-11-14T23:09:15.540Z,5.70
2018-11-14T23:11:43.825Z,5.70
2018-11-14T23:14:12.102Z,5.70
2018-11-14T23:16:40.330Z,5.70
2018-11-14T23:19:08.570Z,5.70
2018-11-14T23:21:36.944Z,5.70
2018-11-14T23:24:06.287Z,5.70
2018-11-14T23:26:34.555Z,5.70
2018-11-14T23:29:02.821Z,5.70
2018-11-14T23:31:31.177Z,5.70
2018-11-14T23:33:59.465Z,5.70
2018-11-14T23:36:27.715Z,5.70
2018-11-14T23:38:55.986Z,5.70
2018-11-14T23:41:24.274Z,5.70
2018-11-14T23:43:52.540Z,5.60
2018-11-14T23:46:20.799Z,5.60
2018-11-14T23:48:52.812Z,5.60
2018-11-14T23:51:21.109Z,5.60
2018-11-14T23:53:49.367Z,5.60
2018-11-14T23:56:17.631Z,5.60
2018-11-14T23:58:45.889Z,5.60
